Time;durP1;ratioP1;P1;durP2;ratioP2;P2;SDS_P1;SDS_P2;PMS_P1;PMS_P2;Temp;Humidity;BMP_temperature;BMP_pressure;BME280_temperature;BME280_humidity;BME280_pressure;Samples;Min_cycle;Max_cycle;Signal;HPM_P1;HPM_P2
2023/09/19 00:01:22;;;;;;;;;;;;;;;16.41;70.94;99814.31;5054733;28;19908;-71
2023/09/19 00:03:47;;;;;;;;;;;;;;;16.64;70.16;99824.91;5036752;28;19915;-71
2023/09/19 00:06:15;;;;;;;;;;;;;;;16.78;69.81;99818.78;5054392;28;19912;-71
2023/09/19 00:08:44;;;;;;;;;;;;;;;17.05;69.19;99821.00;5069431;28;20311;-71
2023/09/19 00:11:10;;;;;;;;;;;;;;;17.03;70.09;99817.75;5035436;28;19948;-71
2023/09/19 00:13:36;;;;;;;;;;;;;;;17.16;69.97;99815.56;5036583;28;19962;-71
2023/09/19 00:16:07;;;;;;;;;;;;;;;17.18;69.67;99814.00;5069564;28;19999;-71
2023/09/19 00:18:34;;;;;;;;;;;;;;;17.20;69.60;99817.28;5053080;28;19913;-71
2023/09/19 00:21:00;;;;;;;;;;;;;;;16.88;70.63;99806.06;5054169;28;20396;-71
2023/09/19 00:23:25;;;;;;;;;;;;;;;16.96;70.88;99812.72;5036134;28;19908;-71
2023/09/19 00:25:51;;;;;;;;;;;;;;;16.60;72.06;99812.72;5053345;28;19913;-71
2023/09/19 00:28:18;;;;;;;;;;;;;;;16.55;72.40;99811.00;5053289;28;20000;-71
2023/09/19 00:30:44;;;;;;;;;;;;;;;16.59;72.45;99808.25;5053964;28;19920;-71
2023/09/19 00:33:11;;;;;;;;;;;;;;;16.69;72.05;99806.88;5069444;28;19912;-71
2023/09/19 00:35:36;;;;;;;;;;;;;;;16.80;71.59;99805.09;5053549;28;19912;-71
2023/09/19 00:38:03;;;;;;;;;;;;;;;16.96;71.02;99810.69;5034963;28;19967;-71
2023/09/19 00:40:29;;;;;;;;;;;;;;;17.00;70.43;99810.81;5035805;28;19913;-71
2023/09/19 00:42:59;;;;;;;;;;;;;;;16.67;71.74;99806.41;5053132;28;19925;-71
2023/09/19 00:45:24;;;;;;;;;;;;;;;16.28;73.05;99801.47;5049332;28;19913;-71
2023/09/19 00:47:51;;;;;;;;;;;;;;;16.13;73.74;99801.13;5051451;28;19935;-71
2023/09/19 00:50:17;;;;;;;;;;;;;;;15.74;75.37;99800.91;5042171;28;20334;-71
2023/09/19 00:52:43;;;;;;;;;;;;;;;15.45;76.45;99800.16;5060875;28;19913;-71
2023/09/19 00:55:09;;;;;;;;;;;;;;;15.39;76.54;99795.94;5053460;28;20066;-71
2023/09/19 00:57:36;;;;;;;;;;;;;;;15.48;76.64;99793.78;5053390;28;19952;-71
2023/09/19 01:00:06;;;;;;;;;;;;;;;15.87;75.18;99793.19;5052547;28;19913;-71
2023/09/19 01:02:32;;;;;;;;;;;;;;;16.14;73.77;99785.03;5053266;28;20403;-71
2023/09/19 01:04:57;;;;;;;;;;;;;;;16.20;73.41;99789.19;5053347;28;19908;-71
2023/09/19 01:07:23;;;;;;;;;;;;;;;16.34;72.56;99787.91;5053279;28;19913;-71
2023/09/19 01:09:48;;;;;;;;;;;;;;;15.86;73.43;99788.72;5053418;28;19908;-71
2023/09/19 01:12:17;;;;;;;;;;;;;;;15.60;74.27;99786.44;5053221;28;20377;-71
2023/09/19 01:15:06;;;;;;;;;;;;;;;15.57;74.78;99791.63;5035139;28;20355;-71
2023/09/19 01:17:43;;;;;;;;;;;;;;;15.75;74.19;99787.63;5052299;28;19912;-71
2023/09/19 01:20:31;;;;;;;;;;;;;;;15.59;74.95;99785.59;5053039;28;19963;-71
2023/09/19 01:23:12;;;;;;;;;;;;;;;15.85;74.30;99790.72;5053197;28;20395;-71
2023/09/19 01:26:06;;;;;;;;;;;;;;;15.95;73.86;99786.56;5034402;28;19913;-71
2023/09/19 01:28:38;;;;;;;;;;;;;;;16.08;73.31;99781.66;5053093;28;19909;-71
2023/09/19 01:31:03;;;;;;;;;;;;;;;15.95;72.95;99785.78;5034949;28;19912;-71
2023/09/19 01:33:50;;;;;;;;;;;;;;;15.65;74.23;99791.81;5051913;28;20455;-71
2023/09/19 01:36:16;;;;;;;;;;;;;;;15.64;74.32;99791.00;5052318;28;19920;-71
2023/09/19 01:38:41;;;;;;;;;;;;;;;15.81;73.65;99784.19;5052882;28;19909;-71
2023/09/19 01:41:12;;;;;;;;;;;;;;;16.07;72.94;99791.31;5052736;28;19931;-71
2023/09/19 01:43:40;;;;;;;;;;;;;;;16.15;72.19;99792.31;5052472;28;19996;-71
2023/09/19 01:46:13;;;;;;;;;;;;;;;16.12;71.96;99791.03;5049747;28;19920;-71
2023/09/19 01:48:46;;;;;;;;;;;;;;;16.26;71.30;99786.91;5051464;28;19944;-71
2023/09/19 01:51:14;;;;;;;;;;;;;;;16.05;71.75;99781.56;5034650;28;19912;-71
2023/09/19 01:53:52;;;;;;;;;;;;;;;16.24;71.34;99784.47;5034674;28;20424;-71
2023/09/19 01:56:22;;;;;;;;;;;;;;;16.12;71.56;99782.56;5046713;28;19999;-71
2023/09/19 01:58:53;;;;;;;;;;;;;;;16.28;71.27;99782.56;5052415;28;19908;-71
2023/09/19 02:01:21;;;;;;;;;;;;;;;16.37;70.57;99782.34;5034442;28;19908;-71
2023/09/19 02:03:48;;;;;;;;;;;;;;;16.41;70.19;99788.91;5051304;28;20372;-71
2023/09/19 02:06:18;;;;;;;;;;;;;;;16.47;69.79;99780.16;5045629;28;19936;-71
2023/09/19 02:08:44;;;;;;;;;;;;;;;16.42;70.47;99782.09;5034388;28;19909;-71
2023/09/19 02:11:10;;;;;;;;;;;;;;;16.39;70.34;99782.00;5052091;28;19913;-71
2023/09/19 02:13:36;;;;;;;;;;;;;;;16.28;70.84;99778.91;5052231;28;19965;-71
2023/09/19 02:16:04;;;;;;;;;;;;;;;16.24;71.42;99780.81;5051758;28;20007;-71
2023/09/19 02:18:30;;;;;;;;;;;;;;;16.12;71.53;99773.28;5034072;28;19909;-71
2023/09/19 02:20:56;;;;;;;;;;;;;;;15.98;72.19;99768.09;5032800;28;20003;-71
2023/09/19 02:23:21;;;;;;;;;;;;;;;16.11;71.70;99780.94;5067392;28;19944;-71
2023/09/19 02:26:00;;;;;;;;;;;;;;;15.96;72.61;99779.75;5051516;28;19912;-71
2023/09/19 02:28:30;;;;;;;;;;;;;;;16.13;72.18;99783.41;5032074;28;20341;-71
2023/09/19 02:30:55;;;;;;;;;;;;;;;16.01;71.67;99778.66;5031929;28;19917;-71
2023/09/19 02:33:21;;;;;;;;;;;;;;;15.88;72.97;99777.91;5031783;28;19977;-71
2023/09/19 02:35:46;;;;;;;;;;;;;;;15.93;73.12;99769.19;5047410;28;19920;-71
2023/09/19 02:38:12;;;;;;;;;;;;;;;16.01;72.42;99770.19;5050765;28;19909;-71
2023/09/19 02:40:37;;;;;;;;;;;;;;;15.93;72.82;99774.03;5031916;28;19952;-71
2023/09/19 02:43:03;;;;;;;;;;;;;;;15.91;73.25;99774.38;5031586;28;19939;-71
2023/09/19 02:45:29;;;;;;;;;;;;;;;15.97;72.96;99774.94;5044726;28;19917;-71
2023/09/19 02:47:55;;;;;;;;;;;;;;;15.97;73.00;99770.09;5033499;28;20332;-71
2023/09/19 02:50:20;;;;;;;;;;;;;;;15.82;73.75;99773.72;5033706;28;19909;-71
2023/09/19 02:52:49;;;;;;;;;;;;;;;15.85;73.74;99767.34;5051526;28;19954;-71
2023/09/19 02:55:17;;;;;;;;;;;;;;;15.81;73.64;99769.25;5051022;28;19912;-71
2023/09/19 02:57:46;;;;;;;;;;;;;;;15.75;74.52;99765.88;5050569;28;19962;-71
2023/09/19 03:00:12;;;;;;;;;;;;;;;15.69;74.71;99770.19;5032730;28;20015;-71
2023/09/19 03:02:39;;;;;;;;;;;;;;;15.53;75.48;99773.78;5067129;28;20001;-71
2023/09/19 03:05:05;;;;;;;;;;;;;;;15.51;75.51;99775.34;5050466;28;19916;-71
2023/09/19 03:07:30;;;;;;;;;;;;;;;15.69;74.80;99770.19;5054800;28;19913;-71
2023/09/19 03:09:56;;;;;;;;;;;;;;;15.56;75.33;99773.03;5033049;28;19913;-71
2023/09/19 03:12:21;;;;;;;;;;;;;;;15.51;76.11;99775.34;5032246;28;19923;-71
2023/09/19 03:14:47;;;;;;;;;;;;;;;15.65;75.47;99772.06;5051118;28;19920;-71
2023/09/19 03:17:14;;;;;;;;;;;;;;;15.43;76.33;99775.13;5031994;28;19917;-71
2023/09/19 03:19:40;;;;;;;;;;;;;;;14.96;78.17;99775.81;5051383;28;19915;-71
2023/09/19 03:22:07;;;;;;;;;;;;;;;14.91;78.67;99770.44;5051118;28;20007;-71
2023/09/19 03:24:35;;;;;;;;;;;;;;;14.82;79.33;99774.22;5050342;28;20461;-71
2023/09/19 03:27:00;;;;;;;;;;;;;;;14.55;80.90;99765.34;5028840;28;19897;-72
2023/09/19 03:29:26;;;;;;;;;;;;;;;14.87;80.16;99761.88;5030389;28;20007;-72
2023/09/19 03:31:54;;;;;;;;;;;;;;;15.00;79.20;99763.47;5050348;28;19917;-70
2023/09/19 03:34:19;;;;;;;;;;;;;;;15.14;78.79;99765.06;5050941;28;19908;-70
2023/09/19 03:36:45;;;;;;;;;;;;;;;15.37;77.72;99765.28;5033189;28;19939;-70
2023/09/19 03:39:10;;;;;;;;;;;;;;;15.45;76.35;99760.69;5051125;28;19909;-70
2023/09/19 03:41:36;;;;;;;;;;;;;;;15.43;76.39;99768.66;5050679;28;19908;-70
2023/09/19 03:44:01;;;;;;;;;;;;;;;15.49;76.20;99761.59;5028049;28;20381;-70
2023/09/19 03:46:27;;;;;;;;;;;;;;;15.58;75.80;99758.59;5029340;28;19999;-70
2023/09/19 03:48:54;;;;;;;;;;;;;;;15.57;75.72;99762.59;5029222;28;19961;-71
2023/09/19 03:51:19;;;;;;;;;;;;;;;15.60;75.33;99767.50;5029906;28;20061;-70
2023/09/19 03:53:45;;;;;;;;;;;;;;;15.70;74.06;99766.16;5031088;28;20397;-70
2023/09/19 03:56:10;;;;;;;;;;;;;;;15.71;73.92;99767.81;5029612;28;19913;-70
2023/09/19 03:58:39;;;;;;;;;;;;;;;15.70;74.11;99766.16;5028915;28;20341;-70
2023/09/19 04:01:04;;;;;;;;;;;;;;;15.76;74.03;99769.53;5031010;28;20047;-70
2023/09/19 04:03:35;;;;;;;;;;;;;;;15.63;75.16;99768.78;5029707;28;19944;-70
2023/09/19 04:06:01;;;;;;;;;;;;;;;15.68;75.25;99762.88;5030685;28;20373;-71
2023/09/19 04:08:26;;;;;;;;;;;;;;;15.41;76.31;99771.88;5030854;28;19976;-70
2023/09/19 04:10:52;;;;;;;;;;;;;;;15.41;76.12;99776.66;5030880;28;20023;-70
2023/09/19 04:13:18;;;;;;;;;;;;;;;15.22;76.46;99775.38;5032396;28;20326;-70
2023/09/19 04:15:43;;;;;;;;;;;;;;;15.27;76.78;99775.09;5033215;28;19919;-70
2023/09/19 04:18:08;;;;;;;;;;;;;;;14.80;78.43;99776.56;5034345;28;20397;-70
2023/09/19 04:20:34;;;;;;;;;;;;;;;14.46;79.79;99776.72;5034463;28;19909;-70
2023/09/19 04:22:59;;;;;;;;;;;;;;;14.22;81.84;99771.13;5032153;28;19913;-70
2023/09/19 04:25:27;;;;;;;;;;;;;;;14.20;82.56;99773.47;5034214;28;19913;-70
2023/09/19 04:27:52;;;;;;;;;;;;;;;14.24;82.94;99777.19;5031471;28;20052;-70
2023/09/19 04:30:18;;;;;;;;;;;;;;;14.18;82.54;99779.47;5032683;28;20008;-70
2023/09/19 04:32:43;;;;;;;;;;;;;;;14.26;83.04;99784.13;5034155;28;19960;-70
2023/09/19 04:35:09;;;;;;;;;;;;;;;14.46;82.01;99779.53;5029536;28;19921;-69
2023/09/19 04:37:39;;;;;;;;;;;;;;;14.56;81.71;99783.88;5033082;28;19917;-70
2023/09/19 04:40:06;;;;;;;;;;;;;;;14.29;83.05;99779.78;5027939;28;19913;-71
2023/09/19 04:42:31;;;;;;;;;;;;;;;14.21;84.32;99775.94;5057448;28;19916;-71
2023/09/19 04:44:56;;;;;;;;;;;;;;;14.36;83.04;99780.03;5060779;28;20301;-71
2023/09/19 04:47:22;;;;;;;;;;;;;;;14.25;83.98;99773.25;5053364;28;19935;-71
2023/09/19 04:49:47;;;;;;;;;;;;;;;14.27;83.55;99768.88;5051229;28;19928;-70
2023/09/19 04:52:15;;;;;;;;;;;;;;;14.44;82.55;99765.00;5052504;28;19921;-71
2023/09/19 04:54:41;;;;;;;;;;;;;;;14.59;81.91;99773.88;5061657;28;20459;-70
2023/09/19 04:57:06;;;;;;;;;;;;;;;14.56;81.09;99778.25;5031861;28;20401;-73
2023/09/19 04:59:32;;;;;;;;;;;;;;;14.57;81.01;99776.22;5030806;28;19913;-70
2023/09/19 05:01:58;;;;;;;;;;;;;;;14.52;81.42;99773.66;5035415;28;20297;-70
2023/09/19 05:04:23;;;;;;;;;;;;;;;14.57;81.14;99774.25;5052881;28;20372;-70
2023/09/19 05:06:48;;;;;;;;;;;;;;;14.57;81.80;99779.88;5052987;28;20382;-70
2023/09/19 05:09:15;;;;;;;;;;;;;;;14.42;82.47;99778.59;5052903;28;19909;-70
2023/09/19 05:11:40;;;;;;;;;;;;;;;14.35;83.39;99780.38;5067993;28;19917;-70
2023/09/19 05:14:05;;;;;;;;;;;;;;;14.54;83.88;99782.56;5052480;28;19908;-70
2023/09/19 05:16:34;;;;;;;;;;;;;;;14.59;84.56;99785.97;5031184;28;20279;-70
2023/09/19 05:19:00;;;;;;;;;;;;;;;14.86;83.32;99789.22;5033274;28;20373;-70
2023/09/19 05:21:28;;;;;;;;;;;;;;;14.60;84.88;99786.81;5033307;28;19935;-70
2023/09/19 05:23:53;;;;;;;;;;;;;;;14.75;84.50;99779.63;5050917;28;19951;-70
2023/09/19 05:26:19;;;;;;;;;;;;;;;14.97;84.23;99781.09;5051203;28;19948;-70
2023/09/19 05:28:44;;;;;;;;;;;;;;;15.06;84.64;99788.56;5051585;28;19913;-69
2023/09/19 05:31:10;;;;;;;;;;;;;;;15.12;84.39;99787.94;5050410;28;19916;-68
2023/09/19 05:33:35;;;;;;;;;;;;;;;15.19;83.54;99787.34;5050936;28;19963;-70
2023/09/19 05:36:00;;;;;;;;;;;;;;;15.21;83.96;99782.19;5051383;28;19913;-69
2023/09/19 05:38:27;;;;;;;;;;;;;;;15.42;82.75;99778.31;5030396;28;19916;-70
2023/09/19 05:40:52;;;;;;;;;;;;;;;15.64;80.84;99776.91;5046404;28;19990;-69
2023/09/19 05:43:18;;;;;;;;;;;;;;;15.46;82.04;99784.88;5037854;28;20761;-69
2023/09/19 05:45:45;;;;;;;;;;;;;;;15.55;80.87;99781.88;5039694;28;19920;-69
2023/09/19 05:48:15;;;;;;;;;;;;;;;15.76;80.15;99783.63;5027997;28;19996;-70
2023/09/19 05:50:41;;;;;;;;;;;;;;;15.77;79.66;99777.63;5055318;28;19952;-70
2023/09/19 05:53:06;;;;;;;;;;;;;;;16.02;78.89;99783.09;5044197;28;20337;-70
2023/09/19 05:55:32;;;;;;;;;;;;;;;15.86;78.99;99781.09;5050290;28;19920;-72
2023/09/19 05:57:57;;;;;;;;;;;;;;;15.79;79.69;99780.88;5050370;28;19924;-71
2023/09/19 06:00:23;;;;;;;;;;;;;;;15.73;81.01;99776.72;5049863;28;19909;-71
2023/09/19 06:02:50;;;;;;;;;;;;;;;15.84;80.73;99771.34;5031450;28;19920;-71
2023/09/19 06:05:15;;;;;;;;;;;;;;;15.84;79.65;99772.19;5029674;28;19955;-71
2023/09/19 06:07:41;;;;;;;;;;;;;;;16.24;78.61;99772.34;5045993;28;19913;-73
2023/09/19 06:10:08;;;;;;;;;;;;;;;16.43;76.69;99749.00;5046160;28;20293;-70
2023/09/19 06:12:35;;;;;;;;;;;;;;;16.35;76.43;99762.13;5050062;28;20081;-68
2023/09/19 06:15:00;;;;;;;;;;;;;;;16.73;75.12;99767.41;5031813;28;19920;-71
2023/09/19 06:17:27;;;;;;;;;;;;;;;16.68;73.38;99768.50;5050677;28;19909;-71
2023/09/19 06:19:52;;;;;;;;;;;;;;;17.00;72.24;99764.78;5049916;28;19912;-72
2023/09/19 06:22:18;;;;;;;;;;;;;;;17.07;71.74;99768.56;5045351;28;19971;-73
2023/09/19 06:24:44;;;;;;;;;;;;;;;17.41;71.26;99765.19;5030795;28;19912;-70
2023/09/19 06:27:09;;;;;;;;;;;;;;;17.57;69.88;99762.28;5049715;28;20381;-69
2023/09/19 06:29:35;;;;;;;;;;;;;;;17.45;69.26;99766.06;5031629;28;19982;-72
2023/09/19 06:32:03;;;;;;;;;;;;;;;17.12;70.58;99758.97;5050247;28;19975;-69
2023/09/19 06:34:28;;;;;;;;;;;;;;;17.06;72.28;99760.47;5049821;28;19920;-68
2023/09/19 06:36:55;;;;;;;;;;;;;;;17.35;70.56;99764.69;5049462;28;19915;-70
2023/09/19 06:39:22;;;;;;;;;;;;;;;17.94;69.65;99756.06;5027885;28;19916;-71
2023/09/19 06:41:48;;;;;;;;;;;;;;;17.93;67.88;99757.25;5049059;28;20439;-74
2023/09/19 06:44:14;;;;;;;;;;;;;;;18.09;67.56;99762.78;5049785;28;19971;-66
2023/09/19 06:46:41;;;;;;;;;;;;;;;18.31;67.29;99754.63;5050732;28;19991;-69
2023/09/19 06:49:07;;;;;;;;;;;;;;;18.35;65.66;99751.84;5051019;28;20373;-67
2023/09/19 06:51:34;;;;;;;;;;;;;;;18.44;65.77;99752.41;5050460;28;20045;-67
2023/09/19 06:53:59;;;;;;;;;;;;;;;18.80;65.41;99752.91;5044434;28;20388;-68
2023/09/19 06:56:25;;;;;;;;;;;;;;;18.96;63.60;99749.03;5050753;28;19917;-69
2023/09/19 06:58:50;;;;;;;;;;;;;;;19.06;65.30;99748.38;5050938;28;19912;-72
2023/09/19 07:01:16;;;;;;;;;;;;;;;18.84;64.97;99750.13;5030092;28;19913;-71
2023/09/19 07:03:41;;;;;;;;;;;;;;;19.29;63.61;99747.44;5049583;28;19943;-68
2023/09/19 07:06:07;;;;;;;;;;;;;;;19.63;62.24;99741.72;5050366;28;19971;-68
2023/09/19 07:08:34;;;;;;;;;;;;;;;19.79;62.79;99737.78;5049918;28;20285;-71
2023/09/19 07:10:59;;;;;;;;;;;;;;;19.89;61.45;99744.75;5050220;28;19971;-70
2023/09/19 07:13:25;;;;;;;;;;;;;;;19.08;64.15;99745.97;5052038;28;19920;-70
2023/09/19 07:15:50;;;;;;;;;;;;;;;18.91;65.02;99750.19;5060475;28;19974;-71
2023/09/19 07:18:16;;;;;;;;;;;;;;;19.57;66.45;99733.94;5050209;28;19919;-71
2023/09/19 07:20:48;;;;;;;;;;;;;;;19.61;63.48;99734.78;5029992;28;19912;-72
2023/09/19 07:23:21;;;;;;;;;;;;;;;19.58;63.99;99732.75;5046128;28;19966;-70
2023/09/19 07:25:47;;;;;;;;;;;;;;;19.66;63.58;99742.94;5038683;28;19971;-70
2023/09/19 07:28:12;;;;;;;;;;;;;;;19.60;64.24;99736.00;5031645;28;19913;-68
2023/09/19 07:30:38;;;;;;;;;;;;;;;19.83;63.92;99737.84;5032139;28;20450;-71
2023/09/19 07:33:05;;;;;;;;;;;;;;;20.25;64.13;99733.72;5032525;28;20062;-73
2023/09/19 07:35:31;;;;;;;;;;;;;;;20.64;62.29;99728.69;5050594;28;19920;-71
2023/09/19 07:37:56;;;;;;;;;;;;;;;20.95;61.95;99726.41;5028668;28;19913;-70
2023/09/19 07:40:23;;;;;;;;;;;;;;;21.13;60.65;99720.78;5050876;28;19920;-71
2023/09/19 07:42:48;;;;;;;;;;;;;;;21.43;58.94;99729.00;5031277;28;19916;-71
2023/09/19 07:45:14;;;;;;;;;;;;;;;21.53;59.30;99724.53;5031844;28;20289;-72
2023/09/19 07:47:50;;;;;;;;;;;;;;;21.43;58.00;99723.28;5048390;28;19912;-70
2023/09/19 07:50:18;;;;;;;;;;;;;;;21.42;58.09;99715.97;5054392;28;20316;-70
2023/09/19 07:52:44;;;;;;;;;;;;;;;21.41;59.11;99714.34;5054257;28;19917;-71
2023/09/19 07:55:11;;;;;;;;;;;;;;;21.51;58.24;99711.94;5036096;28;19920;-71
2023/09/19 07:57:37;;;;;;;;;;;;;;;21.48;57.73;99707.03;5053272;28;19988;-71
2023/09/19 08:00:04;;;;;;;;;;;;;;;21.42;58.05;99710.28;5053168;28;19955;-72
2023/09/19 08:02:30;;;;;;;;;;;;;;;21.67;57.63;99711.59;5038247;28;19912;-71
2023/09/19 08:04:57;;;;;;;;;;;;;;;21.91;58.25;99712.00;5035749;28;19923;-69
2023/09/19 08:07:23;;;;;;;;;;;;;;;22.10;57.54;99708.72;5034883;28;19939;-73
2023/09/19 08:09:48;;;;;;;;;;;;;;;22.11;56.24;99698.16;5053012;28;19913;-72
2023/09/19 08:12:14;;;;;;;;;;;;;;;21.97;57.54;99705.50;5053885;28;20407;-72
2023/09/19 08:14:41;;;;;;;;;;;;;;;22.08;57.59;99698.94;5049483;28;19920;-76
2023/09/19 08:17:07;;;;;;;;;;;;;;;22.06;56.42;99701.41;5048153;28;19963;-80
2023/09/19 08:19:33;;;;;;;;;;;;;;;21.67;56.61;99700.19;5045353;28;19913;-80
2023/09/19 08:21:58;;;;;;;;;;;;;;;21.60;57.40;99687.56;5053267;28;19920;-79
2023/09/19 08:24:30;;;;;;;;;;;;;;;21.81;56.92;99699.38;5052721;28;19909;-79
2023/09/19 08:26:56;;;;;;;;;;;;;;;22.23;56.21;99674.94;5051490;28;20308;-76
2023/09/19 08:29:27;;;;;;;;;;;;;;;22.11;56.07;99684.72;5046302;28;19913;-77
2023/09/19 08:31:53;;;;;;;;;;;;;;;22.17;57.16;99682.25;5051594;28;20357;-76
2023/09/19 08:34:19;;;;;;;;;;;;;;;22.27;57.41;99681.44;5051836;28;19912;-76
2023/09/19 08:36:45;;;;;;;;;;;;;;;21.98;57.44;99683.50;5049398;28;19993;-77
2023/09/19 08:39:11;;;;;;;;;;;;;;;22.22;56.97;99670.47;5033342;28;20385;-77
2023/09/19 08:41:36;;;;;;;;;;;;;;;21.91;57.13;99672.13;5049206;28;20007;-75
2023/09/19 08:44:02;;;;;;;;;;;;;;;21.92;59.13;99668.06;5049890;28;19999;-76
2023/09/19 08:46:30;;;;;;;;;;;;;;;22.54;57.76;99674.47;5050848;28;20011;-76
2023/09/19 08:49:01;;;;;;;;;;;;;;;22.91;56.35;99677.97;5053128;28;19923;-76
2023/09/19 08:51:28;;;;;;;;;;;;;;;22.66;55.02;99676.03;5051951;28;19920;-74
2023/09/19 08:54:06;;;;;;;;;;;;;;;22.37;55.15;99671.22;5033536;28;19917;-72
2023/09/19 08:56:32;;;;;;;;;;;;;;;22.78;53.79;99669.88;5031957;28;19936;-71
2023/09/19 08:59:03;;;;;;;;;;;;;;;22.95;53.05;99676.72;5046756;28;19916;-71
2023/09/19 09:01:32;;;;;;;;;;;;;;;23.37;52.46;99659.00;5047362;28;19916;-72
2023/09/19 09:03:57;;;;;;;;;;;;;;;23.58;52.06;99655.16;5048335;28;19928;-75
2023/09/19 09:06:24;;;;;;;;;;;;;;;23.59;51.40;99661.66;5046386;28;19957;-71
2023/09/19 09:08:53;;;;;;;;;;;;;;;23.95;49.87;99655.63;5051952;28;19909;-76
2023/09/19 09:11:18;;;;;;;;;;;;;;;24.37;50.26;99653.59;5051149;28;20015;-75
2023/09/19 09:13:44;;;;;;;;;;;;;;;24.24;49.00;99644.75;5047255;28;20146;-73
2023/09/19 09:16:09;;;;;;;;;;;;;;;24.54;47.76;99646.06;5047840;28;19908;-72
2023/09/19 09:18:35;;;;;;;;;;;;;;;24.52;48.01;99644.84;5032925;28;20010;-73
2023/09/19 09:21:00;;;;;;;;;;;;;;;24.42;49.88;99643.75;5052342;28;19912;-72
2023/09/19 09:23:28;;;;;;;;;;;;;;;24.04;48.02;99638.84;5049899;28;20315;-77
2023/09/19 09:25:56;;;;;;;;;;;;;;;24.50;48.73;99633.88;5041275;28;20380;-73
2023/09/19 09:28:22;;;;;;;;;;;;;;;24.80;46.88;99629.41;5046719;28;19919;-73
2023/09/19 09:30:49;;;;;;;;;;;;;;;24.87;46.33;99622.00;5029551;28;19925;-73
2023/09/19 09:33:15;;;;;;;;;;;;;;;24.89;45.20;99619.50;5024009;28;19916;-72
2023/09/19 09:36:02;;;;;;;;;;;;;;;25.11;45.58;99630.63;5031076;28;20006;-70
2023/09/19 09:38:44;;;;;;;;;;;;;;;25.31;44.62;99627.88;5047242;28;20426;-73
2023/09/19 09:41:09;;;;;;;;;;;;;;;25.44;43.32;99628.06;5048544;28;20447;-73
2023/09/19 09:43:38;;;;;;;;;;;;;;;25.51;42.58;99628.00;5047267;28;19959;-73
2023/09/19 09:49:14;;;;;;;;;;;;;;;25.09;44.17;99620.41;5042415;28;20014;-72
2023/09/19 09:51:42;;;;;;;;;;;;;;;25.26;44.17;99611.19;5050345;28;20087;-73
2023/09/19 09:54:19;;;;;;;;;;;;;;;25.51;42.64;99614.47;5051053;28;19927;-74
2023/09/19 09:56:54;;;;;;;;;;;;;;;25.47;44.18;99612.91;5050636;28;19913;-76
2023/09/19 09:59:23;;;;;;;;;;;;;;;25.52;43.46;99615.28;5046011;28;19913;-73
2023/09/19 10:01:49;;;;;;;;;;;;;;;25.50;43.61;99612.84;5032302;28;19912;-73
2023/09/19 10:04:29;;;;;;;;;;;;;;;25.63;42.48;99603.63;5050624;28;20078;-73
2023/09/19 10:06:54;;;;;;;;;;;;;;;25.76;43.48;99598.94;5033779;28;19913;-74
2023/09/19 10:09:20;;;;;;;;;;;;;;;25.77;42.73;99594.00;5042029;28;20407;-74
2023/09/19 10:12:01;;;;;;;;;;;;;;;25.68;42.78;99605.19;5049383;28;20018;-74
2023/09/19 10:14:31;;;;;;;;;;;;;;;25.58;42.15;99602.13;5030561;28;19913;-73
2023/09/19 10:17:01;;;;;;;;;;;;;;;25.77;42.09;99597.69;5026619;28;19913;-72
2023/09/19 10:19:30;;;;;;;;;;;;;;;25.90;42.29;99597.84;5046543;28;19960;-74
2023/09/19 10:21:58;;;;;;;;;;;;;;;26.03;41.32;99600.06;5048965;28;19916;-74
2023/09/19 10:24:26;;;;;;;;;;;;;;;26.16;40.93;99588.78;5049078;28;20039;-74
2023/09/19 10:26:53;;;;;;;;;;;;;;;26.18;40.25;99581.34;5049213;28;20003;-74
2023/09/19 10:29:19;;;;;;;;;;;;;;;26.31;39.93;99572.13;5049956;28;20288;-73
2023/09/19 10:31:47;;;;;;;;;;;;;;;26.58;39.86;99568.28;5049882;28;19917;-73
2023/09/19 10:34:14;;;;;;;;;;;;;;;26.58;41.32;99560.47;5061896;28;20369;-73
2023/09/19 10:36:44;;;;;;;;;;;;;;;26.55;40.51;99560.56;5028285;28;20305;-73
2023/09/19 10:39:12;;;;;;;;;;;;;;;26.69;39.50;99557.38;5031674;28;19996;-73
2023/09/19 10:41:37;;;;;;;;;;;;;;;26.73;39.66;99552.34;5032415;28;19909;-73
2023/09/19 10:44:04;;;;;;;;;;;;;;;26.69;39.13;99550.81;5031420;28;19919;-73
2023/09/19 10:46:33;;;;;;;;;;;;;;;26.69;39.67;99551.63;5046021;28;19920;-73
2023/09/19 10:49:00;;;;;;;;;;;;;;;26.98;39.20;99550.97;5049023;28;19999;-73
2023/09/19 10:51:28;;;;;;;;;;;;;;;27.22;39.04;99547.94;5031357;28;20356;-73
2023/09/19 10:54:00;;;;;;;;;;;;;;;26.99;38.28;99543.19;5045187;28;19920;-73
2023/09/19 10:56:32;;;;;;;;;;;;;;;26.86;38.75;99543.03;5046193;28;19983;-74
2023/09/19 10:59:08;;;;;;;;;;;;;;;27.14;38.06;99544.44;5048484;28;19912;-73
2023/09/19 11:01:47;;;;;;;;;;;;;;;26.82;38.84;99533.72;5031057;28;20374;-74
2023/09/19 11:04:35;;;;;;;;;;;;;;;26.71;38.19;99533.97;5037364;28;19921;-74
2023/09/19 11:07:15;;;;;;;;;;;;;;;26.99;39.21;99525.97;5013790;28;20336;-74
2023/09/19 11:09:47;;;;;;;;;;;;;;;27.07;38.22;99526.59;5048225;28;20389;-74
2023/09/19 11:12:52;;;;;;;;;;;;;;;26.73;38.65;99520.78;5044782;28;19931;-75
2023/09/19 11:15:34;;;;;;;;;;;;;;;26.97;38.26;99517.81;5045694;28;20293;-76
2023/09/19 11:18:00;;;;;;;;;;;;;;;26.57;39.17;99509.31;5046952;28;20387;-76
2023/09/19 11:20:26;;;;;;;;;;;;;;;26.19;39.62;99505.63;5043670;28;19947;-74
2023/09/19 11:23:11;;;;;;;;;;;;;;;26.44;39.27;99506.31;5032489;28;20003;-75
2023/09/19 11:25:47;;;;;;;;;;;;;;;26.40;39.70;99497.78;5050909;28;19916;-74
2023/09/19 11:28:15;;;;;;;;;;;;;;;26.66;39.45;99500.09;5029905;28;19935;-74
2023/09/19 11:30:43;;;;;;;;;;;;;;;26.63;38.93;99498.91;5048484;28;20371;-74
2023/09/19 11:33:23;;;;;;;;;;;;;;;26.75;39.40;99494.53;5053160;28;19913;-74
2023/09/19 11:36:12;;;;;;;;;;;;;;;26.62;40.00;99492.38;5033933;28;19966;-74
2023/09/19 11:39:08;;;;;;;;;;;;;;;26.29;40.29;99482.88;5052940;28;19927;-73
2023/09/19 11:41:36;;;;;;;;;;;;;;;26.58;39.74;99480.16;5029849;28;19963;-73
2023/09/19 11:44:03;;;;;;;;;;;;;;;26.59;39.53;99483.84;5052645;28;20319;-72
2023/09/19 11:46:29;;;;;;;;;;;;;;;26.48;39.87;99473.44;5052651;28;19995;-73
2023/09/19 11:48:56;;;;;;;;;;;;;;;26.73;39.63;99474.91;5052835;28;20047;-72
2023/09/19 11:51:23;;;;;;;;;;;;;;;27.05;39.51;99464.72;5052845;28;20422;-70
2023/09/19 11:53:51;;;;;;;;;;;;;;;27.15;38.48;99462.81;5052732;28;20276;-70
2023/09/19 11:56:20;;;;;;;;;;;;;;;25.99;40.05;99462.59;5052707;28;20313;-74
2023/09/19 11:58:48;;;;;;;;;;;;;;;26.09;40.00;99455.03;5034500;28;20383;-70
2023/09/19 12:01:19;;;;;;;;;;;;;;;26.23;40.01;99451.06;5046740;28;19919;-70
2023/09/19 12:03:47;;;;;;;;;;;;;;;26.23;39.72;99453.94;5039765;28;19912;-72
2023/09/19 12:06:14;;;;;;;;;;;;;;;26.69;40.15;99459.84;5052392;28;21213;-71
2023/09/19 12:08:42;;;;;;;;;;;;;;;26.88;39.29;99457.38;5050976;28;19921;-71
2023/09/19 12:11:10;;;;;;;;;;;;;;;27.44;37.94;99441.16;5034056;28;19916;-71
2023/09/19 12:13:37;;;;;;;;;;;;;;;27.44;39.96;99444.03;5033523;28;20301;-72
2023/09/19 12:16:11;;;;;;;;;;;;;;;27.84;38.40;99438.00;5053804;28;20372;-72
2023/09/19 12:18:36;;;;;;;;;;;;;;;27.83;37.95;99441.34;5051868;28;19924;-70
2023/09/19 12:21:02;;;;;;;;;;;;;;;28.02;37.94;99445.28;5053609;28;19913;-71
2023/09/19 12:23:27;;;;;;;;;;;;;;;28.19;36.68;99433.72;5033525;28;19935;-70
2023/09/19 12:25:56;;;;;;;;;;;;;;;27.84;36.43;99435.13;5048970;28;19919;-72
2023/09/19 12:28:24;;;;;;;;;;;;;;;27.87;36.20;99431.34;5046219;28;19912;-73
2023/09/19 12:30:50;;;;;;;;;;;;;;;28.14;38.15;99430.13;5049831;28;19917;-74
2023/09/19 12:33:25;;;;;;;;;;;;;;;28.00;37.26;99424.81;5044134;28;19923;-73
2023/09/19 12:35:53;;;;;;;;;;;;;;;27.91;38.78;99424.69;5050829;28;19920;-72
2023/09/19 12:38:25;;;;;;;;;;;;;;;27.82;37.41;99420.41;5045677;28;19912;-74
2023/09/19 12:40:51;;;;;;;;;;;;;;;27.91;38.52;99413.97;5035701;28;19974;-74
2023/09/19 12:43:17;;;;;;;;;;;;;;;27.89;37.44;99417.34;5034076;28;19920;-76
2023/09/19 12:45:42;;;;;;;;;;;;;;;27.94;38.39;99418.03;5040044;28;19927;-77
2023/09/19 12:48:33;;;;;;;;;;;;;;;27.92;37.77;99409.84;5051650;28;19912;-72
2023/09/19 12:51:12;;;;;;;;;;;;;;;27.94;37.26;99406.53;5050837;28;20367;-72
2023/09/19 12:53:48;;;;;;;;;;;;;;;27.08;38.14;99411.34;5029883;28;20574;-72
2023/09/19 12:56:15;;;;;;;;;;;;;;;26.50;39.15;99407.06;5042812;28;19924;-73